Time;durP1;ratioP1;P1;durP2;ratioP2;P2;SDS_P1;SDS_P2;PMS_P1;PMS_P2;Temp;Humidity;BMP_temperature;BMP_pressure;BME280_temperature;BME280_humidity;BME280_pressure;Samples;Min_cycle;Max_cycle;Signal;HPM_P1;HPM_P2
2023/06/06 00:01:29;;;;;;;;;9.00;8.67;;;;;17.98;66.58;101688.38;5060893;28;45471;-70
2023/06/06 00:03:55;;;;;;;;;13.33;11.00;;;;;18.02;65.80;101705.09;5060762;28;45352;-70
2023/06/06 00:06:21;;;;;;;;;11.00;9.00;;;;;17.96;66.53;101698.31;5049088;28;45460;-70
2023/06/06 00:08:52;;;;;;;;;8.67;8.67;;;;;17.91;67.40;101704.91;5039782;28;45365;-70
2023/06/06 00:11:18;;;;;;;;;10.33;9.67;;;;;17.85;66.47;101702.63;5051874;28;46255;-70
2023/06/06 00:13:44;;;;;;;;;13.00;10.00;;;;;17.80;67.24;101702.06;5060667;28;45324;-70
2023/06/06 00:16:12;;;;;;;;;10.33;8.33;;;;;17.75;67.89;101702.34;5060799;28;45445;-70
2023/06/06 00:18:38;;;;;;;;;10.00;10.00;;;;;17.63;66.85;101687.94;5049611;28;45257;-70
2023/06/06 00:21:04;;;;;;;;;7.67;6.33;;;;;17.60;68.20;101682.75;5035958;28;45434;-69
2023/06/06 00:23:30;;;;;;;;;10.00;8.33;;;;;17.58;68.51;101689.16;5055872;28;45351;-70
2023/06/06 00:25:56;;;;;;;;;9.33;9.33;;;;;17.58;68.79;101686.47;5039967;28;45640;-70
2023/06/06 00:28:21;;;;;;;;;12.33;12.33;;;;;17.55;67.85;101690.22;5047560;28;45432;-70
2023/06/06 00:30:46;;;;;;;;;12.33;11.67;;;;;17.54;68.46;101682.22;5051305;28;45632;-70
2023/06/06 00:33:12;;;;;;;;;15.33;11.67;;;;;17.49;68.29;101685.22;5046263;28;45366;-70
2023/06/06 00:35:37;;;;;;;;;12.00;10.00;;;;;17.43;68.59;101688.25;5039284;28;45407;-70
2023/06/06 00:38:02;;;;;;;;;13.00;10.00;;;;;17.39;68.46;101684.06;5044171;28;45410;-70
2023/06/06 00:40:28;;;;;;;;;12.33;10.00;;;;;17.35;69.27;101682.50;5050973;28;46125;-70
2023/06/06 00:42:53;;;;;;;;;12.00;10.00;;;;;17.32;69.42;101682.69;5026583;28;45569;-70
2023/06/06 00:45:19;;;;;;;;;14.00;11.67;;;;;17.30;69.72;101687.28;5050949;28;45283;-70
2023/06/06 00:47:45;;;;;;;;;13.67;10.00;;;;;17.24;69.94;101682.31;5047447;28;45861;-70
2023/06/06 00:50:12;;;;;;;;;11.00;11.00;;;;;17.18;71.04;101667.50;5059254;28;45378;-70
2023/06/06 00:52:39;;;;;;;;;10.00;10.00;;;;;17.27;69.60;101683.94;5035091;28;45723;-70
2023/06/06 00:55:05;;;;;;;;;9.00;9.00;;;;;17.25;69.97;101691.19;5047432;28;45469;-71
2023/06/06 00:57:31;;;;;;;;;10.67;10.00;;;;;17.13;70.23;101672.28;5058223;28;45311;-70
2023/06/06 00:59:57;;;;;;;;;9.33;8.67;;;;;17.14;70.38;101674.00;5057005;28;46491;-70
2023/06/06 01:02:24;;;;;;;;;13.00;10.00;;;;;17.09;70.74;101672.53;5048183;28;45341;-70
2023/06/06 01:04:50;;;;;;;;;10.00;10.00;;;;;16.99;71.87;101653.53;5046879;28;45323;-70
2023/06/06 01:07:17;;;;;;;;;13.00;10.33;;;;;17.13;73.23;101677.63;5031971;28;45633;-70
2023/06/06 01:09:43;;;;;;;;;11.67;11.67;;;;;17.04;72.12;101664.81;5047504;28;45632;-70
2023/06/06 01:12:20;;;;;;;;;11.33;11.33;;;;;17.01;70.96;101662.34;5044810;28;45379;-70
2023/06/06 01:14:58;;;;;;;;;10.00;10.00;;;;;17.06;71.80;101673.59;5047521;28;45451;-70
2023/06/06 01:17:27;;;;;;;;;8.33;7.67;;;;;16.93;70.95;101651.22;5027958;28;45402;-70
2023/06/06 01:19:56;;;;;;;;;11.00;8.67;;;;;16.97;71.10;101660.78;5041867;28;45262;-70
2023/06/06 01:22:23;;;;;;;;;12.00;11.00;;;;;16.95;71.81;101659.19;5037263;28;45604;-70
2023/06/06 01:24:52;;;;;;;;;16.00;11.67;;;;;16.94;72.25;101673.47;5042458;28;45303;-70
2023/06/06 01:27:18;;;;;;;;;11.67;10.00;;;;;16.90;72.40;101663.91;5052975;28;45499;-70
2023/06/06 01:29:44;;;;;;;;;14.33;12.67;;;;;16.93;72.71;101669.06;5045851;28;45440;-70
2023/06/06 01:32:24;;;;;;;;;12.00;9.67;;;;;16.92;72.47;101665.53;5038856;28;45281;-70
2023/06/06 01:35:11;;;;;;;;;10.00;9.00;;;;;16.91;72.04;101661.16;5047782;28;45354;-70
2023/06/06 01:38:22;;;;;;;;;12.67;12.67;;;;;16.88;71.87;101665.84;5035738;28;45430;-70
2023/06/06 01:40:51;;;;;;;;;13.00;12.00;;;;;16.77;71.84;101650.44;5032168;28;47930;-70
2023/06/06 01:43:17;;;;;;;;;14.00;13.00;;;;;16.80;72.71;101658.25;5056840;28;45422;-70
2023/06/06 01:45:44;;;;;;;;;14.00;11.00;;;;;16.72;72.48;101660.50;5048825;28;45343;-70
2023/06/06 01:48:11;;;;;;;;;12.00;11.67;;;;;16.73;73.00;101662.25;5048971;28;45449;-70
2023/06/06 01:50:37;;;;;;;;;12.67;12.67;;;;;16.62;72.89;101654.03;5025659;28;46072;-70
2023/06/06 01:53:02;;;;;;;;;11.67;9.67;;;;;16.55;73.47;101649.97;5052199;28;45401;-70
2023/06/06 01:55:28;;;;;;;;;16.33;13.00;;;;;16.55;73.74;101658.84;5059146;28;45284;-70
2023/06/06 01:57:53;;;;;;;;;15.00;12.00;;;;;16.50;73.73;101665.34;5059075;28;45319;-70
2023/06/06 02:00:19;;;;;;;;;13.00;12.33;;;;;16.48;73.78;101670.81;5059283;28;45307;-70
2023/06/06 02:02:44;;;;;;;;;14.00;12.00;;;;;16.43;74.33;101664.00;5058056;28;45331;-70
2023/06/06 02:05:10;;;;;;;;;13.00;11.67;;;;;16.33;75.05;101642.31;5059385;28;45414;-70
2023/06/06 02:07:37;;;;;;;;;14.00;12.67;;;;;16.41;74.57;101666.75;5035232;28;45529;-70
2023/06/06 02:10:03;;;;;;;;;11.67;10.33;;;;;16.39;74.80;101657.13;5049884;28;45958;-70
2023/06/06 02:12:28;;;;;;;;;13.33;8.67;;;;;16.35;75.45;101656.44;5059085;28;45224;-70
2023/06/06 02:14:54;;;;;;;;;16.00;14.33;;;;;16.31;74.80;101657.56;5045589;28;45284;-70
2023/06/06 02:17:20;;;;;;;;;11.00;11.00;;;;;16.29;75.28;101663.94;5054780;28;45321;-71
2023/06/06 02:19:46;;;;;;;;;17.00;14.67;;;;;16.25;76.40;101667.72;5047152;28;45401;-70
2023/06/06 02:22:12;;;;;;;;;16.33;14.67;;;;;16.24;74.93;101660.66;5035015;28;45542;-71
2023/06/06 02:24:37;;;;;;;;;17.33;13.00;;;;;16.24;76.97;101668.66;5052225;28;45658;-70
2023/06/06 02:27:03;;;;;;;;;15.33;13.67;;;;;16.22;74.96;101674.09;5023307;28;45486;-70
2023/06/06 02:29:29;;;;;;;;;12.33;12.33;;;;;16.14;75.45;101671.88;5056367;28;46067;-70
2023/06/06 02:31:54;;;;;;;;;19.33;15.00;;;;;16.05;75.67;101663.50;5047904;28;45303;-70
2023/06/06 02:34:21;;;;;;;;;15.00;13.00;;;;;15.89;76.30;101655.50;5056188;28;45586;-70
2023/06/06 02:36:48;;;;;;;;;15.00;12.33;;;;;15.85;75.91;101647.75;5052551;28;45535;-70
2023/06/06 02:39:13;;;;;;;;;20.00;16.33;;;;;15.92;75.90;101673.16;5044274;28;46565;-70
2023/06/06 02:41:39;;;;;;;;;18.33;12.00;;;;;15.89;77.01;101670.66;5051151;28;45269;-70
2023/06/06 02:44:04;;;;;;;;;15.00;14.00;;;;;15.83;76.99;101671.88;5053654;28;45288;-70
2023/06/06 02:46:30;;;;;;;;;17.67;15.67;;;;;15.76;76.88;101673.13;5053466;28;45485;-70
2023/06/06 02:48:56;;;;;;;;;17.67;13.00;;;;;15.59;77.05;101649.19;5044926;28;45281;-70
2023/06/06 02:51:22;;;;;;;;;10.67;8.00;;;;;15.67;77.77;101662.13;5056711;28;45510;-70
2023/06/06 02:53:49;;;;;;;;;17.33;15.00;;;;;15.58;77.39;101651.00;5027775;28;45462;-70
2023/06/06 02:56:16;;;;;;;;;12.67;12.00;;;;;15.66;78.51;101660.38;5038497;28;45812;-71
2023/06/06 02:58:42;;;;;;;;;15.00;12.67;;;;;15.67;78.02;101662.13;5036698;28;48202;-71
2023/06/06 03:01:09;;;;;;;;;19.00;17.67;;;;;15.58;78.46;101650.13;5051944;28;45411;-70
2023/06/06 03:03:35;;;;;;;;;16.00;14.00;;;;;15.58;78.43;101661.66;5050015;28;46870;-70
2023/06/06 03:06:00;;;;;;;;;19.67;17.33;;;;;15.54;79.58;101653.94;5023187;28;45529;-70
2023/06/06 03:08:26;;;;;;;;;19.00;16.00;;;;;15.50;78.86;101663.03;5046522;28;46301;-70
2023/06/06 03:10:52;;;;;;;;;16.00;14.67;;;;;15.38;78.65;101645.00;5033254;28;45546;-70
2023/06/06 03:13:17;;;;;;;;;15.67;15.67;;;;;15.38;81.05;101653.00;5042449;28;45940;-70
2023/06/06 03:15:47;;;;;;;;;21.00;18.00;;;;;15.42;80.17;101654.53;5050706;28;45330;-70
2023/06/06 03:18:16;;;;;;;;;19.67;16.00;;;;;15.37;80.19;101667.25;5049757;28;48052;-71
2023/06/06 03:20:44;;;;;;;;;15.00;15.00;;;;;15.33;80.27;101669.22;5021038;28;45872;-70
2023/06/06 03:23:11;;;;;;;;;16.67;14.33;;;;;15.28;80.68;101659.75;5021565;28;45513;-70
2023/06/06 03:25:40;;;;;;;;;22.33;16.00;;;;;15.22;80.65;101665.38;5053826;28;45490;-71
2023/06/06 03:28:05;;;;;;;;;18.00;14.00;;;;;15.16;81.48;101657.72;5038167;28;47264;-70
2023/06/06 03:30:31;;;;;;;;;18.67;17.67;;;;;15.07;81.28;101643.09;5044874;28;45527;-70
2023/06/06 03:32:57;;;;;;;;;21.33;16.00;;;;;15.15;81.38;101659.50;5049696;28;45773;-70
2023/06/06 03:35:22;;;;;;;;;22.33;19.00;;;;;15.14;81.92;101657.81;5042329;28;45327;-70
2023/06/06 03:37:48;;;;;;;;;24.00;20.67;;;;;15.10;81.48;101659.78;5052812;28;48225;-71
2023/06/06 03:40:13;;;;;;;;;23.67;19.00;;;;;15.12;81.77;101655.22;5030714;28;45229;-71
2023/06/06 03:42:38;;;;;;;;;18.33;15.67;;;;;15.05;82.25;101658.31;5058972;28;45337;-71
2023/06/06 03:45:05;;;;;;;;;23.33;19.00;;;;;15.04;82.88;101661.91;5045070;28;45365;-70
2023/06/06 03:47:30;;;;;;;;;16.67;14.00;;;;;14.98;82.66;101659.56;5042999;28;46211;-70
2023/06/06 03:49:56;;;;;;;;;20.33;18.00;;;;;15.01;84.50;101675.38;5057924;28;45366;-70
2023/06/06 03:52:22;;;;;;;;;20.00;20.00;;;;;14.82;82.79;101655.97;5039662;28;45391;-70
2023/06/06 03:54:48;;;;;;;;;20.33;16.00;;;;;14.88;84.09;101669.81;5044582;28;45438;-70
2023/06/06 03:57:13;;;;;;;;;23.00;19.00;;;;;14.84;84.04;101668.25;5029350;28;47284;-70
2023/06/06 03:59:39;;;;;;;;;21.00;19.00;;;;;14.82;83.94;101659.47;5021067;28;45444;-70
2023/06/06 04:02:05;;;;;;;;;22.00;21.00;;;;;14.86;83.62;101671.69;5021313;28;45225;-70
2023/06/06 04:04:31;;;;;;;;;23.00;20.00;;;;;14.73;84.59;101665.25;5040339;28;45468;-70
2023/06/06 04:06:57;;;;;;;;;26.33;20.67;;;;;14.79;84.43;101680.91;5039909;28;45243;-69
2023/06/06 04:09:23;;;;;;;;;30.00;21.67;;;;;14.78;85.67;101676.56;5033509;28;45980;-69
2023/06/06 04:11:48;;;;;;;;;20.00;16.00;;;;;14.77;85.17;101673.94;5035670;28;45346;-69
2023/06/06 04:14:14;;;;;;;;;22.00;21.00;;;;;14.73;84.66;101681.22;5040799;28;45507;-70
2023/06/06 04:16:40;;;;;;;;;21.50;19.50;;;;;14.68;85.40;101680.63;5024854;28;46116;-69
2023/06/06 04:19:06;;;;;;;;;21.33;19.00;;;;;14.68;86.17;101685.06;5040581;28;45439;-70
2023/06/06 04:21:32;;;;;;;;;25.33;20.00;;;;;14.65;86.42;101678.09;5025525;28;45326;-69
2023/06/06 04:23:58;;;;;;;;;27.00;25.00;;;;;14.60;86.14;101667.69;5019227;28;45461;-69
2023/06/06 04:26:25;;;;;;;;;20.00;20.00;;;;;14.65;86.74;101686.09;5034748;28;45238;-69
2023/06/06 04:28:53;;;;;;;;;24.25;23.00;;;;;14.64;86.73;101681.69;5040300;28;45650;-69
2023/06/06 04:31:23;;;;;;;;;28.50;23.75;;;;;14.64;85.70;101689.69;5026899;28;45394;-69
2023/06/06 04:33:53;;;;;;;;;31.50;28.25;;;;;14.62;86.82;101683.59;5035548;28;45781;-69
2023/06/06 04:36:19;;;;;;;;;28.00;21.33;;;;;14.61;87.28;101671.22;5032049;28;45881;-69
2023/06/06 04:38:53;;;;;;;;;25.67;20.67;;;;;14.53;87.53;101676.91;5028225;28;45545;-69
2023/06/06 04:41:22;;;;;;;;;31.33;24.67;;;;;14.63;88.66;101679.13;5050845;28;45342;-70
2023/06/06 04:43:51;;;;;;;;;29.00;22.50;;;;;14.50;86.90;101658.44;5018240;28;45388;-70
2023/06/06 04:46:23;;;;;;;;;30.75;28.25;;;;;14.67;88.89;101681.53;5022999;28;45693;-69
2023/06/06 04:48:54;;;;;;;;;28.75;26.50;;;;;14.69;87.67;101682.31;5018702;28;45520;-69
2023/06/06 04:51:22;;;;;;;;;32.25;27.50;;;;;14.68;88.32;101672.63;5023446;28;45375;-70
2023/06/06 04:53:50;;;;;;;;;28.50;25.00;;;;;14.49;87.33;101642.53;5024376;28;45382;-70
2023/06/06 04:56:17;;;;;;;;;28.00;26.25;;;;;14.60;87.76;101665.00;5014554;28;45793;-70
2023/06/06 04:58:44;;;;;;;;;35.00;29.50;;;;;14.60;86.78;101662.34;5049928;28;45526;-70
2023/06/06 05:01:12;;;;;;;;;30.00;27.00;;;;;14.78;88.29;101686.34;5056127;28;46868;-70
2023/06/06 05:03:38;;;;;;;;;35.00;30.50;;;;;14.76;88.08;101677.53;5039150;28;45493;-70
2023/06/06 05:06:05;;;;;;;;;35.00;31.25;;;;;14.73;87.65;101667.06;5037526;28;45518;-70
2023/06/06 05:08:32;;;;;;;;;33.25;26.00;;;;;14.84;88.56;101683.38;5040067;28;45533;-70
2023/06/06 05:10:58;;;;;;;;;31.25;25.75;;;;;14.86;88.42;101673.47;5058680;28;45440;-70
2023/06/06 05:13:23;;;;;;;;;31.50;27.75;;;;;14.95;87.66;101681.84;5024590;28;45351;-70
2023/06/06 05:15:49;;;;;;;;;36.00;33.00;;;;;14.99;88.43;101679.91;5039554;28;46026;-70
2023/06/06 05:18:15;;;;;;;;;31.75;31.50;;;;;15.02;87.29;101677.06;5053038;28;45298;-70
2023/06/06 05:20:41;;;;;;;;;38.25;32.00;;;;;15.02;87.02;101685.94;5042017;28;45378;-70
2023/06/06 05:23:07;;;;;;;;;39.50;27.50;;;;;15.02;86.61;101679.75;5044029;28;45409;-70
2023/06/06 05:25:32;;;;;;;;;41.25;31.50;;;;;15.07;87.26;101678.59;5049981;28;45942;-70
2023/06/06 05:27:58;;;;;;;;;31.75;29.00;;;;;15.12;86.18;101681.84;5044125;28;45318;-70
2023/06/06 05:30:23;;;;;;;;;34.33;30.33;;;;;15.16;87.18;101682.56;5049895;28;45342;-70
2023/06/06 05:32:48;;;;;;;;;37.00;32.00;;;;;15.14;86.98;101676.47;5047366;28;45161;-70
2023/06/06 05:35:14;;;;;;;;;38.00;32.00;;;;;15.21;86.03;101679.66;5039009;28;45647;-69
2023/06/06 05:37:41;;;;;;;;;35.25;32.00;;;;;15.27;86.85;101684.69;5050307;28;45385;-69
2023/06/06 05:40:08;;;;;;;;;37.75;33.25;;;;;15.29;85.78;101682.78;5046047;28;45292;-69
2023/06/06 05:42:33;;;;;;;;;40.33;31.67;;;;;15.35;87.23;101675.31;5041683;28;45292;-69
2023/06/06 05:44:59;;;;;;;;;35.00;30.33;;;;;15.41;85.61;101690.16;5059304;28;45489;-69
2023/06/06 05:47:24;;;;;;;;;35.25;27.25;;;;;15.48;85.31;101687.09;5045922;28;45268;-69
2023/06/06 05:49:49;;;;;;;;;33.50;29.75;;;;;15.42;86.06;101660.72;5029416;28;45501;-69
2023/06/06 05:52:15;;;;;;;;;39.00;31.25;;;;;15.62;85.33;101689.88;5050183;28;45590;-69
2023/06/06 05:54:40;;;;;;;;;36.25;32.00;;;;;15.63;85.40;101683.63;5027560;28;47947;-70
2023/06/06 05:57:20;;;;;;;;;41.00;34.25;;;;;15.71;84.89;101683.19;5045019;28;45399;-69
2023/06/06 05:59:45;;;;;;;;;37.00;31.25;;;;;15.75;83.49;101687.41;5049716;28;45247;-70
2023/06/06 06:02:13;;;;;;;;;33.33;28.33;;;;;15.73;84.13;101693.78;5046364;28;45499;-69
2023/06/06 06:04:39;;;;;;;;;33.25;31.00;;;;;15.76;85.30;101693.59;5044791;28;45332;-70
2023/06/06 06:07:05;;;;;;;;;37.50;32.25;;;;;15.67;84.56;101683.44;5045793;28;45716;-70
2023/06/06 06:09:31;;;;;;;;;36.75;30.25;;;;;15.77;84.95;101695.34;5056349;28;45234;-70
2023/06/06 06:11:56;;;;;;;;;34.00;30.00;;;;;15.81;86.23;101689.75;5035616;28;45394;-70
2023/06/06 06:14:21;;;;;;;;;32.67;30.00;;;;;15.79;84.84;101688.09;5042481;28;45319;-70
2023/06/06 06:16:46;;;;;;;;;37.00;31.75;;;;;15.84;84.59;101699.38;5024193;28;45643;-69
2023/06/06 06:19:12;;;;;;;;;40.00;31.00;;;;;15.77;85.58;101685.50;5042429;28;45340;-69
2023/06/06 06:21:37;;;;;;;;;38.50;31.00;;;;;15.66;84.45;101669.25;5042602;28;45410;-69
2023/06/06 06:24:03;;;;;;;;;28.50;25.75;;;;;15.91;83.58;101701.63;5041597;28;45278;-70
2023/06/06 06:26:28;;;;;;;;;40.50;32.50;;;;;15.98;83.86;101684.34;5023641;28;45443;-70
2023/06/06 06:28:55;;;;;;;;;35.67;28.67;;;;;16.08;83.84;101701.56;5041354;28;45367;-70
2023/06/06 06:31:20;;;;;;;;;43.25;34.00;;;;;16.11;83.59;101692.53;5040439;28;45590;-69
2023/06/06 06:33:46;;;;;;;;;43.00;34.75;;;;;16.19;83.43;101694.78;5050522;28;47282;-70
2023/06/06 06:36:11;;;;;;;;;40.75;33.50;;;;;16.27;82.38;101703.19;5061974;28;45429;-71
2023/06/06 06:38:37;;;;;;;;;34.75;31.00;;;;;16.39;83.11;101697.19;5048616;28;45208;-71
2023/06/06 06:41:03;;;;;;;;;43.00;34.00;;;;;16.54;80.77;101699.81;5048758;28;45363;-71
2023/06/06 06:43:28;;;;;;;;;37.00;32.75;;;;;16.67;80.93;101702.69;5051735;28;46240;-70
2023/06/06 06:45:53;;;;;;;;;33.25;32.25;;;;;16.70;80.09;101685.59;5043099;28;45308;-71
2023/06/06 06:48:19;;;;;;;;;26.33;22.67;;;;;16.83;80.29;101690.13;5051085;28;45291;-70
2023/06/06 06:50:45;;;;;;;;;37.50;33.00;;;;;17.06;78.41;101694.13;5062096;28;45278;-71
2023/06/06 06:53:12;;;;;;;;;39.50;32.50;;;;;17.25;79.86;101688.50;5043400;28;47911;-71
2023/06/06 06:55:38;;;;;;;;;35.50;32.75;;;;;17.51;75.70;101704.69;5058874;28;45354;-71
2023/06/06 06:58:05;;;;;;;;;45.50;35.75;;;;;17.70;77.41;101693.75;5052419;28;45481;-71
2023/06/06 07:00:31;;;;;;;;;42.25;31.50;;;;;17.87;75.16;101706.91;5046936;28;45299;-71
2023/06/06 07:02:57;;;;;;;;;34.25;30.00;;;;;17.94;74.60;101694.88;5060300;28;45394;-70
2023/06/06 07:05:23;;;;;;;;;35.75;32.25;;;;;18.04;74.72;101701.34;5061827;28;45938;-70
2023/06/06 07:07:52;;;;;;;;;37.50;33.00;;;;;18.11;73.66;101697.34;5061023;28;45344;-70
2023/06/06 07:10:19;;;;;;;;;40.50;32.75;;;;;18.17;73.18;101686.22;5060951;28;45417;-70
2023/06/06 07:12:49;;;;;;;;;38.75;33.25;;;;;18.34;71.99;101703.00;5043889;28;46187;-70
2023/06/06 07:15:19;;;;;;;;;42.50;34.00;;;;;18.35;70.98;101712.78;5044552;28;45406;-70
2023/06/06 07:17:49;;;;;;;;;36.50;29.25;;;;;18.46;71.64;101704.88;5060412;28;45225;-70
2023/06/06 07:20:18;;;;;;;;;39.50;33.50;;;;;18.55;71.08;101702.47;5061078;28;45323;-70
2023/06/06 07:22:43;;;;;;;;;36.75;32.75;;;;;18.63;72.04;101696.63;5060701;28;45252;-70
2023/06/06 07:25:09;;;;;;;;;42.75;33.75;;;;;18.67;71.85;101704.38;5059967;28;45177;-70
2023/06/06 07:27:36;;;;;;;;;37.00;33.25;;;;;18.67;70.82;101680.25;5058459;28;45740;-70
2023/06/06 07:30:12;;;;;;;;;35.00;32.75;;;;;18.53;70.21;101679.44;5028427;28;45299;-70
2023/06/06 07:32:43;;;;;;;;;34.50;32.00;;;;;18.63;69.74;101708.22;5061092;28;45396;-70
2023/06/06 07:35:13;;;;;;;;;35.25;28.75;;;;;18.58;70.62;101680.00;5033415;28;45291;-70
2023/06/06 07:37:39;;;;;;;;;42.75;34.50;;;;;18.82;70.54;101696.25;5046738;28;45753;-70
2023/06/06 07:40:07;;;;;;;;;44.25;34.25;;;;;18.85;69.93;101688.03;5048588;28;45320;-70
2023/06/06 07:42:33;;;;;;;;;37.00;32.50;;;;;19.00;69.46;101697.69;5042688;28;47206;-70
2023/06/06 07:44:58;;;;;;;;;38.00;30.50;;;;;19.18;69.53;101681.19;5054920;28;45224;-70
2023/06/06 07:47:24;;;;;;;;;38.75;33.00;;;;;19.33;69.36;101697.22;5045847;28;45652;-71
2023/06/06 07:49:52;;;;;;;;;36.00;32.00;;;;;19.39;68.44;101703.00;5060762;28;45359;-71
2023/06/06 07:52:18;;;;;;;;;34.25;31.50;;;;;19.47;68.38;101684.56;5055088;28;46237;-70
2023/06/06 07:54:43;;;;;;;;;40.50;33.00;;;;;19.62;67.18;101702.28;5060815;28;45334;-70
2023/06/06 07:57:10;;;;;;;;;35.50;33.25;;;;;19.70;67.09;101686.47;5059703;28;45507;-70
2023/06/06 07:59:36;;;;;;;;;38.00;32.75;;;;;19.74;65.72;101693.34;5061328;28;45322;-70
2023/06/06 08:02:01;;;;;;;;;42.25;33.75;;;;;19.79;66.49;101701.09;5051702;28;45421;-70
2023/06/06 08:04:27;;;;;;;;;39.25;31.50;;;;;19.79;66.19;101693.03;5061107;28;45241;-70
2023/06/06 08:06:53;;;;;;;;;36.50;31.00;;;;;19.85;66.42;101686.38;5041228;28;46593;-70
2023/06/06 08:09:19;;;;;;;;;38.25;32.25;;;;;19.95;64.81;101688.28;5059889;28;45322;-70
2023/06/06 08:11:45;;;;;;;;;42.75;35.25;;;;;20.18;65.95;101692.84;5060525;28;46301;-70
2023/06/06 08:14:10;;;;;;;;;41.25;34.25;;;;;20.43;64.95;101699.13;5040182;28;45196;-70
2023/06/06 08:16:37;;;;;;;;;38.00;32.75;;;;;20.74;65.55;101691.31;5052844;28;45730;-70
2023/06/06 08:19:03;;;;;;;;;40.50;36.00;;;;;21.01;63.51;101685.69;5028864;28;45642;-70
2023/06/06 08:21:28;;;;;;;;;34.50;30.50;;;;;20.95;62.46;101661.09;5041418;28;45355;-70
2023/06/06 08:23:55;;;;;;;;;39.67;32.33;;;;;21.34;61.27;101692.16;5054179;28;45236;-70
2023/06/06 08:26:25;;;;;;;;;34.33;28.33;;;;;21.30;61.26;101678.09;5061004;28;45307;-70
2023/06/06 08:28:51;;;;;;;;;38.00;34.00;;;;;21.36;60.79;101685.69;5060432;28;45470;-70
2023/06/06 08:31:16;;;;;;;;;37.25;32.50;;;;;21.35;60.54;101686.66;5059487;28;48392;-70
2023/06/06 08:33:42;;;;;;;;;34.00;31.67;;;;;21.33;60.89;101687.75;5060162;28;45231;-70
2023/06/06 08:36:08;;;;;;;;;47.33;34.00;;;;;21.25;60.71;101672.22;5051126;28;45267;-70
2023/06/06 08:38:34;;;;;;;;;40.00;34.50;;;;;21.35;60.38;101683.09;5055730;28;45347;-70
2023/06/06 08:41:01;;;;;;;;;34.00;32.33;;;;;21.44;60.16;101687.75;5052666;28;45437;-70
2023/06/06 08:43:27;;;;;;;;;31.67;27.33;;;;;21.46;59.45;101686.69;5059164;28;45344;-70
2023/06/06 08:45:56;;;;;;;;;31.33;30.00;;;;;21.57;62.01;101686.69;5042772;28;45257;-70
2023/06/06 08:48:26;;;;;;;;;35.00;32.00;;;;;21.68;59.79;101684.00;5040293;28;45395;-70
2023/06/06 08:50:52;;;;;;;;;39.67;33.00;;;;;21.80;59.02;101679.47;5048596;28;46056;-70
2023/06/06 08:53:19;;;;;;;;;32.67;31.00;;;;;21.82;59.48;101685.59;5057057;28;45316;-70
2023/06/06 08:55:45;;;;;;;;;31.33;28.67;;;;;21.88;59.98;101686.94;5046837;28;45311;-70
2023/06/06 08:58:12;;;;;;;;;28.67;25.67;;;;;22.08;59.45;101699.69;5058844;28;45259;-70
2023/06/06 09:00:37;;;;;;;;;38.00;28.67;;;;;22.17;57.30;101693.56;5042280;28;45268;-70
2023/06/06 09:03:06;;;;;;;;;29.67;27.67;;;;;22.21;57.06;101690.50;5060011;28;45334;-70
2023/06/06 09:05:32;;;;;;;;;31.67;27.67;;;;;22.16;57.25;101687.28;5060355;28;45497;-70
2023/06/06 09:07:58;;;;;;;;;29.00;27.00;;;;;22.30;58.20;101696.94;5059240;28;45450;-70
2023/06/06 09:10:23;;;;;;;;;35.33;34.00;;;;;22.43;57.81;101686.88;5049918;28;46005;-70
2023/06/06 09:12:49;;;;;;;;;32.33;27.67;;;;;22.62;56.25;101686.19;5059418;28;45376;-70
2023/06/06 09:15:15;;;;;;;;;28.00;26.67;;;;;22.72;57.14;101689.88;5053468;28;45256;-70
2023/06/06 09:17:44;;;;;;;;;32.00;28.33;;;;;22.79;56.82;101689.22;5055584;28;45423;-70
2023/06/06 09:20:12;;;;;;;;;31.67;30.67;;;;;22.86;57.34;101678.78;5038526;28;48071;-70
2023/06/06 09:22:39;;;;;;;;;28.67;24.67;;;;;22.84;54.76;101686.13;5050631;28;45470;-70
2023/06/06 09:25:05;;;;;;;;;34.00;34.00;;;;;22.89;56.26;101685.75;5041439;28;45219;-70
2023/06/06 09:27:31;;;;;;;;;38.00;31.67;;;;;23.10;56.12;101681.22;5059115;28;45324;-70
2023/06/06 09:29:57;;;;;;;;;33.00;29.33;;;;;23.07;54.59;101674.22;5059638;28;45263;-70
2023/06/06 09:32:29;;;;;;;;;30.67;30.67;;;;;23.07;54.59;101679.63;5045991;28;45320;-70
2023/06/06 09:34:59;;;;;;;;;29.00;26.67;;;;;23.20;56.23;101666.78;5055294;28;45393;-70
2023/06/06 09:37:27;;;;;;;;;33.67;28.00;;;;;23.41;53.53;101668.66;5044297;28;45597;-70
2023/06/06 09:40:17;;;;;;;;;30.00;25.67;;;;;23.51;53.92;101672.25;5040058;28;46273;-70
2023/06/06 09:42:48;;;;;;;;;33.67;27.67;;;;;23.62;53.93;101674.88;5045695;28;45462;-70
2023/06/06 09:45:15;;;;;;;;;32.00;28.00;;;;;23.64;54.03;101681.00;5048056;28;45394;-70
2023/06/06 09:47:42;;;;;;;;;29.33;25.33;;;;;23.75;52.93;101670.13;5030587;28;45470;-70
2023/06/06 09:50:08;;;;;;;;;30.00;26.33;;;;;23.92;53.68;101663.22;5044829;28;46328;-70
2023/06/06 09:52:33;;;;;;;;;29.67;27.00;;;;;23.96;52.41;101668.19;5040523;28;45322;-70
2023/06/06 09:55:00;;;;;;;;;20.33;19.67;;;;;23.98;52.44;101668.91;5052728;28;45324;-70
2023/06/06 09:57:26;;;;;;;;;30.00;21.00;;;;;24.15;53.06;101665.56;5056109;28;45313;-70
2023/06/06 09:59:53;;;;;;;;;32.67;27.67;;;;;24.19;51.54;101653.47;5059222;28;46360;-70
2023/06/06 10:02:20;;;;;;;;;30.33;27.00;;;;;24.29;52.28;101651.66;5046343;28;45267;-70
2023/06/06 10:04:47;;;;;;;;;23.67;23.67;;;;;24.38;52.67;101650.81;5048118;28;45264;-71
2023/06/06 10:07:14;;;;;;;;;19.67;17.00;;;;;24.53;52.97;101653.09;5049539;28;45541;-70
2023/06/06 10:09:40;;;;;;;;;28.67;24.33;;;;;24.58;51.65;101638.16;5040118;28;45573;-70
2023/06/06 10:12:07;;;;;;;;;28.00;24.33;;;;;24.86;51.27;101642.75;5030298;28;45622;-70
2023/06/06 10:14:33;;;;;;;;;24.00;21.00;;;;;25.05;50.88;101644.56;5041442;28;45348;-70
2023/06/06 10:17:00;;;;;;;;;27.67;24.67;;;;;25.02;49.65;101654.81;5057891;28;45483;-70
2023/06/06 10:19:26;;;;;;;;;33.00;30.00;;;;;24.84;49.58;101651.97;5058898;28;45301;-70
2023/06/06 10:21:52;;;;;;;;;31.33;26.33;;;;;24.74;50.67;101645.69;5049242;28;45414;-70
2023/06/06 10:24:18;;;;;;;;;27.00;25.00;;;;;24.84;51.50;101641.16;5048954;28;45354;-70
2023/06/06 10:26:54;;;;;;;;;26.00;21.33;;;;;24.95;51.22;101635.59;5050359;28;45726;-70
2023/06/06 10:29:25;;;;;;;;;25.33;22.00;;;;;25.11;52.18;101633.16;5058859;28;46081;-70
2023/06/06 10:31:56;;;;;;;;;27.00;24.33;;;;;25.24;49.91;101635.53;5058798;28;45406;-70
2023/06/06 10:34:28;;;;;;;;;24.67;19.33;;;;;25.40;50.55;101639.34;5058770;28;45396;-70
2023/06/06 10:36:56;;;;;;;;;29.67;28.00;;;;;25.54;48.88;101643.47;5055136;28;45350;-70
2023/06/06 10:39:28;;;;;;;;;23.67;22.00;;;;;25.61;49.36;101632.88;5055783;28;45439;-70
2023/06/06 10:41:57;;;;;;;;;26.33;23.67;;;;;25.67;49.49;101630.44;5033915;28;45626;-70
2023/06/06 10:44:36;;;;;;;;;27.33;24.67;;;;;25.77;47.79;101635.78;5062248;28;45314;-70
2023/06/06 10:47:32;;;;;;;;;23.00;21.67;;;;;25.75;48.69;101624.25;5053909;28;45308;-70
2023/06/06 10:50:13;;;;;;;;;23.67;22.00;;;;;25.97;50.10;101626.56;5025119;28;45489;-70
2023/06/06 10:52:59;;;;;;;;;23.33;21.33;;;;;26.01;47.34;101622.53;5061348;28;45291;-70
2023/06/06 10:55:24;;;;;;;;;25.67;22.67;;;;;26.13;47.87;101621.31;5056651;28;45374;-70
2023/06/06 10:58:04;;;;;;;;;24.00;22.67;;;;;26.28;48.60;101614.38;5060750;28;45335;-70
2023/06/06 11:00:43;;;;;;;;;19.33;18.33;;;;;26.52;50.12;101618.34;5044121;28;47408;-70
2023/06/06 11:03:13;;;;;;;;;23.33;20.00;;;;;26.72;48.11;101600.88;5060777;28;45232;-70
2023/06/06 11:06:01;;;;;;;;;16.00;15.00;;;;;26.87;46.02;101611.03;5061789;28;45351;-70
2023/06/06 11:08:44;;;;;;;;;22.67;21.33;;;;;26.95;45.88;101617.56;5055541;28;45376;-70
2023/06/06 11:11:15;;;;;;;;;23.00;19.67;;;;;27.07;43.83;101600.84;5061646;28;45300;-70